sensor_id;sensor_type;location;lat;lon;timestamp;P1;durP1;ratioP1;P2;durP2;ratioP2
5279;SDS011;2663;53.588;10.010;2022-10-17T00:00:10;9.13;;;4.07;;
5279;SDS011;2663;53.588;10.010;2022-10-17T00:02:37;10.07;;;4.30;;
5279;SDS011;2663;53.588;10.010;2022-10-17T00:05:04;8.27;;;3.37;;
5279;SDS011;2663;53.588;10.010;2022-10-17T00:07:30;11.63;;;4.33;;
5279;SDS011;2663;53.588;10.010;2022-10-17T00:09:57;10.97;;;3.50;;
5279;SDS011;2663;53.588;10.010;2022-10-17T00:12:24;5.60;;;3.80;;
5279;SDS011;2663;53.588;10.010;2022-10-17T00:14:50;9.53;;;3.47;;
5279;SDS011;2663;53.588;10.010;2022-10-17T00:17:17;14.97;;;4.50;;
5279;SDS011;2663;53.588;10.010;2022-10-17T00:19:44;8.30;;;3.83;;
5279;SDS011;2663;53.588;10.010;2022-10-17T00:22:11;8.20;;;3.83;;
5279;SDS011;2663;53.588;10.010;2022-10-17T00:24:38;8.30;;;3.33;;
5279;SDS011;2663;53.588;10.010;2022-10-17T00:27:05;9.47;;;3.80;;
5279;SDS011;2663;53.588;10.010;2022-10-17T00:29:31;9.23;;;3.00;;
5279;SDS011;2663;53.588;10.010;2022-10-17T00:31:58;6.27;;;3.00;;
5279;SDS011;2663;53.588;10.010;2022-10-17T00:34:27;13.33;;;3.27;;
5279;SDS011;2663;53.588;10.010;2022-10-17T00:36:54;4.47;;;3.17;;
5279;SDS011;2663;53.588;10.010;2022-10-17T00:39:21;10.47;;;3.20;;
5279;SDS011;2663;53.588;10.010;2022-10-17T00:41:48;9.17;;;3.33;;
5279;SDS011;2663;53.588;10.010;2022-10-17T00:46:56;14.90;;;4.07;;
5279;SDS011;2663;53.588;10.010;2022-10-17T00:49:25;5.23;;;3.40;;
5279;SDS011;2663;53.588;10.010;2022-10-17T00:51:56;7.07;;;3.27;;
5279;SDS011;2663;53.588;10.010;2022-10-17T00:54:27;37.03;;;18.20;;
5279;SDS011;2663;53.588;10.010;2022-10-17T00:56:58;8.50;;;3.73;;
5279;SDS011;2663;53.588;10.010;2022-10-17T00:59:26;14.30;;;3.30;;
5279;SDS011;2663;53.588;10.010;2022-10-17T01:02:11;9.50;;;3.20;;
5279;SDS011;2663;53.588;10.010;2022-10-17T01:04:40;17.87;;;4.40;;
5279;SDS011;2663;53.588;10.010;2022-10-17T01:07:10;6.73;;;3.43;;
5279;SDS011;2663;53.588;10.010;2022-10-17T01:09:36;10.17;;;3.87;;
5279;SDS011;2663;53.588;10.010;2022-10-17T01:17:28;9.83;;;3.90;;
5279;SDS011;2663;53.588;10.010;2022-10-17T01:31:14;10.40;;;3.40;;
5279;SDS011;2663;53.588;10.010;2022-10-17T01:33:58;4.73;;;3.33;;
5279;SDS011;2663;53.588;10.010;2022-10-17T01:36:36;6.37;;;3.10;;
5279;SDS011;2663;53.588;10.010;2022-10-17T01:39:45;4.30;;;2.30;;
5279;SDS011;2663;53.588;10.010;2022-10-17T01:42:24;4.60;;;2.70;;
5279;SDS011;2663;53.588;10.010;2022-10-17T01:47:30;7.90;;;3.17;;
5279;SDS011;2663;53.588;10.010;2022-10-17T01:50:02;5.97;;;3.17;;
5279;SDS011;2663;53.588;10.010;2022-10-17T01:52:42;8.10;;;2.80;;
5279;SDS011;2663;53.588;10.010;2022-10-17T01:55:25;3.47;;;2.70;;
5279;SDS011;2663;53.588;10.010;2022-10-17T01:58:00;6.53;;;2.60;;
5279;SDS011;2663;53.588;10.010;2022-10-17T02:00:36;8.33;;;2.70;;
5279;SDS011;2663;53.588;10.010;2022-10-17T02:03:05;7.17;;;2.70;;
5279;SDS011;2663;53.588;10.010;2022-10-17T02:05:36;12.83;;;2.70;;
5279;SDS011;2663;53.588;10.010;2022-10-17T02:08:05;7.10;;;2.27;;
5279;SDS011;2663;53.588;10.010;2022-10-17T02:10:38;5.40;;;2.60;;
5279;SDS011;2663;53.588;10.010;2022-10-17T02:16:16;8.73;;;2.70;;
5279;SDS011;2663;53.588;10.010;2022-10-17T02:24:20;11.47;;;2.83;;
5279;SDS011;2663;53.588;10.010;2022-10-17T02:27:05;12.00;;;3.67;;
5279;SDS011;2663;53.588;10.010;2022-10-17T02:29:46;9.47;;;2.97;;
5279;SDS011;2663;53.588;10.010;2022-10-17T02:32:20;3.20;;;2.47;;
5279;SDS011;2663;53.588;10.010;2022-10-17T02:34:54;9.83;;;3.37;;
5279;SDS011;2663;53.588;10.010;2022-10-17T02:37:26;6.67;;;3.07;;
5279;SDS011;2663;53.588;10.010;2022-10-17T02:39:56;8.03;;;2.40;;
5279;SDS011;2663;53.588;10.010;2022-10-17T02:42:25;8.83;;;2.47;;
5279;SDS011;2663;53.588;10.010;2022-10-17T02:44:54;8.33;;;2.17;;
5279;SDS011;2663;53.588;10.010;2022-10-17T02:47:34;2.83;;;2.07;;
5279;SDS011;2663;53.588;10.010;2022-10-17T02:50:04;8.10;;;3.00;;
5279;SDS011;2663;53.588;10.010;2022-10-17T02:57:51;3.80;;;2.80;;
5279;SDS011;2663;53.588;10.010;2022-10-17T03:00:21;4.73;;;2.30;;
5279;SDS011;2663;53.588;10.010;2022-10-17T03:02:51;2.90;;;2.17;;
5279;SDS011;2663;53.588;10.010;2022-10-17T03:05:19;10.27;;;2.37;;
5279;SDS011;2663;53.588;10.010;2022-10-17T03:07:48;21.33;;;3.00;;
5279;SDS011;2663;53.588;10.010;2022-10-17T03:10:15;10.67;;;2.97;;
5279;SDS011;2663;53.588;10.010;2022-10-17T03:12:42;2.93;;;2.57;;
5279;SDS011;2663;53.588;10.010;2022-10-17T03:15:08;4.60;;;2.90;;
5279;SDS011;2663;53.588;10.010;2022-10-17T03:17:36;7.70;;;2.47;;
5279;SDS011;2663;53.588;10.010;2022-10-17T03:20:04;8.17;;;2.23;;
5279;SDS011;2663;53.588;10.010;2022-10-17T03:22:32;5.20;;;2.30;;
5279;SDS011;2663;53.588;10.010;2022-10-17T03:24:59;1.80;;;1.70;;
5279;SDS011;2663;53.588;10.010;2022-10-17T03:27:25;7.53;;;2.33;;
5279;SDS011;2663;53.588;10.010;2022-10-17T03:29:53;4.30;;;2.27;;
5279;SDS011;2663;53.588;10.010;2022-10-17T03:32:19;4.67;;;1.90;;
5279;SDS011;2663;53.588;10.010;2022-10-17T03:34:46;4.17;;;2.50;;
5279;SDS011;2663;53.588;10.010;2022-10-17T03:37:12;7.67;;;2.23;;
5279;SDS011;2663;53.588;10.010;2022-10-17T03:39:39;5.90;;;2.80;;
5279;SDS011;2663;53.588;10.010;2022-10-17T03:42:06;1.87;;;1.77;;
5279;SDS011;2663;53.588;10.010;2022-10-17T03:44:32;2.37;;;2.07;;
5279;SDS011;2663;53.588;10.010;2022-10-17T03:46:59;4.63;;;2.03;;
5279;SDS011;2663;53.588;10.010;2022-10-17T03:49:26;3.50;;;2.63;;
5279;SDS011;2663;53.588;10.010;2022-10-17T03:51:52;7.83;;;2.50;;
5279;SDS011;2663;53.588;10.010;2022-10-17T03:54:19;2.13;;;1.87;;
5279;SDS011;2663;53.588;10.010;2022-10-17T03:56:45;3.50;;;2.23;;
5279;SDS011;2663;53.588;10.010;2022-10-17T03:59:13;2.20;;;1.97;;
5279;SDS011;2663;53.588;10.010;2022-10-17T04:01:40;2.57;;;2.07;;
5279;SDS011;2663;53.588;10.010;2022-10-17T04:04:07;5.90;;;2.47;;
5279;SDS011;2663;53.588;10.010;2022-10-17T04:06:34;3.50;;;2.50;;
5279;SDS011;2663;53.588;10.010;2022-10-17T04:09:02;4.00;;;2.30;;
5279;SDS011;2663;53.588;10.010;2022-10-17T04:11:30;4.90;;;2.30;;
5279;SDS011;2663;53.588;10.010;2022-10-17T04:13:57;7.47;;;2.70;;
5279;SDS011;2663;53.588;10.010;2022-10-17T04:16:27;3.63;;;1.80;;
5279;SDS011;2663;53.588;10.010;2022-10-17T04:18:55;4.40;;;2.43;;
5279;SDS011;2663;53.588;10.010;2022-10-17T04:21:23;2.50;;;2.30;;
5279;SDS011;2663;53.588;10.010;2022-10-17T04:23:52;2.33;;;1.97;;
5279;SDS011;2663;53.588;10.010;2022-10-17T04:26:20;8.83;;;2.60;;
5279;SDS011;2663;53.588;10.010;2022-10-17T04:28:46;7.80;;;2.20;;
5279;SDS011;2663;53.588;10.010;2022-10-17T04:31:13;3.80;;;2.20;;
5279;SDS011;2663;53.588;10.010;2022-10-17T04:33:40;4.17;;;2.40;;
5279;SDS011;2663;53.588;10.010;2022-10-17T04:36:11;6.70;;;3.10;;
5279;SDS011;2663;53.588;10.010;2022-10-17T04:38:39;3.37;;;3.07;;
5279;SDS011;2663;53.588;10.010;2022-10-17T04:41:09;2.63;;;2.00;;
5279;SDS011;2663;53.588;10.010;2022-10-17T04:43:38;5.40;;;3.17;;
5279;SDS011;2663;53.588;10.010;2022-10-17T04:46:08;2.93;;;2.17;;
5279;SDS011;2663;53.588;10.010;2022-10-17T04:48:37;2.57;;;2.37;;
5279;SDS011;2663;53.588;10.010;2022-10-17T04:51:06;13.60;;;2.53;;
5279;SDS011;2663;53.588;10.010;2022-10-17T04:53:35;3.33;;;2.37;;
5279;SDS011;2663;53.588;10.010;2022-10-17T04:56:22;5.03;;;2.10;;
5279;SDS011;2663;53.588;10.010;2022-10-17T04:58:50;3.27;;;1.80;;
5279;SDS011;2663;53.588;10.010;2022-10-17T05:01:18;5.63;;;2.30;;
5279;SDS011;2663;53.588;10.010;2022-10-17T05:03:46;2.00;;;1.90;;
5279;SDS011;2663;53.588;10.010;2022-10-17T05:06:14;6.50;;;2.03;;
5279;SDS011;2663;53.588;10.010;2022-10-17T05:08:42;4.40;;;2.10;;
5279;SDS011;2663;53.588;10.010;2022-10-17T05:11:17;4.57;;;2.63;;
5279;SDS011;2663;53.588;10.010;2022-10-17T05:13:52;2.50;;;2.30;;
5279;SDS011;2663;53.588;10.010;2022-10-17T05:16:24;2.20;;;2.00;;
5279;SDS011;2663;53.588;10.010;2022-10-17T05:18:52;3.03;;;2.33;;
5279;SDS011;2663;53.588;10.010;2022-10-17T05:21:20;4.00;;;2.23;;
5279;SDS011;2663;53.588;10.010;2022-10-17T05:23:49;2.70;;;1.97;;
5279;SDS011;2663;53.588;10.010;2022-10-17T05:26:15;6.20;;;2.70;;
5279;SDS011;2663;53.588;10.010;2022-10-17T05:28:42;5.93;;;2.13;;
5279;SDS011;2663;53.588;10.010;2022-10-17T05:31:09;5.73;;;2.20;;
5279;SDS011;2663;53.588;10.010;2022-10-17T05:33:36;16.57;;;3.10;;
5279;SDS011;2663;53.588;10.010;2022-10-17T05:36:04;3.90;;;1.73;;
5279;SDS011;2663;53.588;10.010;2022-10-17T05:38:32;2.20;;;2.10;;
5279;SDS011;2663;53.588;10.010;2022-10-17T05:41:00;5.90;;;2.37;;
5279;SDS011;2663;53.588;10.010;2022-10-17T05:43:28;2.20;;;2.00;;
5279;SDS011;2663;53.588;10.010;2022-10-17T05:45:55;3.20;;;2.43;;
5279;SDS011;2663;53.588;10.010;2022-10-17T05:48:22;7.57;;;3.33;;
5279;SDS011;2663;53.588;10.010;2022-10-17T05:50:49;4.03;;;2.53;;
5279;SDS011;2663;53.588;10.010;2022-10-17T05:53:22;13.10;;;2.60;;
5279;SDS011;2663;53.588;10.010;2022-10-17T05:55:55;5.77;;;2.40;;
5279;SDS011;2663;53.588;10.010;2022-10-17T05:58:23;4.60;;;3.20;;
5279;SDS011;2663;53.588;10.010;2022-10-17T06:01:10;5.13;;;2.87;;
5279;SDS011;2663;53.588;10.010;2022-10-17T06:03:38;7.40;;;2.73;;
5279;SDS011;2663;53.588;10.010;2022-10-17T06:06:09;7.50;;;2.70;;
5279;SDS011;2663;53.588;10.010;2022-10-17T06:08:37;5.27;;;2.50;;
5279;SDS011;2663;53.588;10.010;2022-10-17T06:11:04;4.63;;;2.50;;
5279;SDS011;2663;53.588;10.010;2022-10-17T06:13:35;2.50;;;2.30;;
5279;SDS011;2663;53.588;10.010;2022-10-17T06:16:02;9.40;;;2.90;;
5279;SDS011;2663;53.588;10.010;2022-10-17T06:18:29;2.50;;;2.30;;
5279;SDS011;2663;53.588;10.010;2022-10-17T06:21:02;13.20;;;3.93;;
5279;SDS011;2663;53.588;10.010;2022-10-17T06:23:30;5.10;;;3.40;;
5279;SDS011;2663;53.588;10.010;2022-10-17T06:26:00;6.10;;;3.60;;
5279;SDS011;2663;53.588;10.010;2022-10-17T06:28:29;6.03;;;3.80;;
5279;SDS011;2663;53.588;10.010;2022-10-17T06:30:56;7.00;;;4.20;;
5279;SDS011;2663;53.588;10.010;2022-10-17T06:33:22;4.90;;;3.60;;
5279;SDS011;2663;53.588;10.010;2022-10-17T06:35:50;8.23;;;5.87;;
5279;SDS011;2663;53.588;10.010;2022-10-17T06:38:17;4.23;;;3.23;;
5279;SDS011;2663;53.588;10.010;2022-10-17T06:40:44;7.60;;;3.70;;
5279;SDS011;2663;53.588;10.010;2022-10-17T06:43:10;11.03;;;3.97;;
5279;SDS011;2663;53.588;10.010;2022-10-17T06:45:38;10.43;;;3.50;;
5279;SDS011;2663;53.588;10.010;2022-10-17T06:48:05;9.43;;;5.30;;
5279;SDS011;2663;53.588;10.010;2022-10-17T06:50:33;6.97;;;3.70;;
5279;SDS011;2663;53.588;10.010;2022-10-17T06:52:59;9.50;;;4.10;;
5279;SDS011;2663;53.588;10.010;2022-10-17T06:55:26;8.80;;;3.40;;
5279;SDS011;2663;53.588;10.010;2022-10-17T06:57:54;10.73;;;4.07;;
5279;SDS011;2663;53.588;10.010;2022-10-17T07:00:21;8.67;;;3.80;;
5279;SDS011;2663;53.588;10.010;2022-10-17T07:02:48;10.33;;;5.77;;
5279;SDS011;2663;53.588;10.010;2022-10-17T07:05:15;15.93;;;8.53;;
5279;SDS011;2663;53.588;10.010;2022-10-17T07:07:44;22.73;;;4.10;;
5279;SDS011;2663;53.588;10.010;2022-10-17T07:10:14;9.43;;;4.17;;
5279;SDS011;2663;53.588;10.010;2022-10-17T07:12:41;8.43;;;3.63;;
5279;SDS011;2663;53.588;10.010;2022-10-17T07:15:09;5.47;;;3.63;;
5279;SDS011;2663;53.588;10.010;2022-10-17T07:17:36;11.50;;;3.83;;
5279;SDS011;2663;53.588;10.010;2022-10-17T07:20:03;11.00;;;3.67;;
5279;SDS011;2663;53.588;10.010;2022-10-17T07:22:30;7.57;;;3.50;;
5279;SDS011;2663;53.588;10.010;2022-10-17T07:24:57;5.83;;;2.90;;
5279;SDS011;2663;53.588;10.010;2022-10-17T07:27:23;7.30;;;3.27;;
5279;SDS011;2663;53.588;10.010;2022-10-17T07:29:50;3.77;;;2.93;;
5279;SDS011;2663;53.588;10.010;2022-10-17T07:32:17;4.00;;;3.07;;
5279;SDS011;2663;53.588;10.010;2022-10-17T07:34:43;26.87;;;7.40;;
5279;SDS011;2663;53.588;10.010;2022-10-17T07:37:10;5.37;;;3.80;;
5279;SDS011;2663;53.588;10.010;2022-10-17T07:39:36;14.43;;;4.53;;
5279;SDS011;2663;53.588;10.010;2022-10-17T07:42:05;5.30;;;3.40;;
5279;SDS011;2663;53.588;10.010;2022-10-17T07:44:32;38.77;;;3.50;;
5279;SDS011;2663;53.588;10.010;2022-10-17T07:47:00;4.50;;;2.90;;
5279;SDS011;2663;53.588;10.010;2022-10-17T07:49:27;7.17;;;3.50;;
5279;SDS011;2663;53.588;10.010;2022-10-17T07:51:54;2.63;;;2.43;;
5279;SDS011;2663;53.588;10.010;2022-10-17T07:54:21;8.03;;;3.73;;
5279;SDS011;2663;53.588;10.010;2022-10-17T07:56:48;15.43;;;8.60;;
5279;SDS011;2663;53.588;10.010;2022-10-17T07:59:18;32.70;;;14.43;;
5279;SDS011;2663;53.588;10.010;2022-10-17T08:01:45;28.53;;;16.00;;
5279;SDS011;2663;53.588;10.010;2022-10-17T08:04:12;20.57;;;10.20;;
5279;SDS011;2663;53.588;10.010;2022-10-17T08:06:38;13.30;;;6.33;;
5279;SDS011;2663;53.588;10.010;2022-10-17T08:09:05;9.83;;;4.23;;
5279;SDS011;2663;53.588;10.010;2022-10-17T08:11:32;17.17;;;8.63;;
5279;SDS011;2663;53.588;10.010;2022-10-17T08:13:58;4.30;;;3.80;;
5279;SDS011;2663;53.588;10.010;2022-10-17T08:16:25;12.30;;;6.20;;
5279;SDS011;2663;53.588;10.010;2022-10-17T08:18:52;14.83;;;6.40;;
5279;SDS011;2663;53.588;10.010;2022-10-17T08:21:18;8.57;;;3.70;;
5279;SDS011;2663;53.588;10.010;2022-10-17T08:23:45;8.83;;;3.80;;
5279;SDS011;2663;53.588;10.010;2022-10-17T08:26:12;3.60;;;3.30;;
5279;SDS011;2663;53.588;10.010;2022-10-17T08:28:42;5.93;;;3.53;;
5279;SDS011;2663;53.588;10.010;2022-10-17T08:31:10;4.30;;;3.40;;
5279;SDS011;2663;53.588;10.010;2022-10-17T08:33:39;7.00;;;3.13;;
5279;SDS011;2663;53.588;10.010;2022-10-17T08:36:07;6.03;;;3.80;;
5279;SDS011;2663;53.588;10.010;2022-10-17T08:38:35;6.03;;;4.10;;
5279;SDS011;2663;53.588;10.010;2022-10-17T08:43:56;8.33;;;4.97;;
5279;SDS011;2663;53.588;10.010;2022-10-17T08:46:45;5.33;;;3.17;;
5279;SDS011;2663;53.588;10.010;2022-10-17T08:49:24;8.77;;;3.70;;
5279;SDS011;2663;53.588;10.010;2022-10-17T08:52:06;4.53;;;2.70;;
5279;SDS011;2663;53.588;10.010;2022-10-17T08:54:42;10.33;;;5.87;;
5279;SDS011;2663;53.588;10.010;2022-10-17T08:57:12;11.30;;;5.30;;
5279;SDS011;2663;53.588;10.010;2022-10-17T08:59:41;23.57;;;9.57;;
5279;SDS011;2663;53.588;10.010;2022-10-17T09:08:02;10.03;;;2.50;;
5279;SDS011;2663;53.588;10.010;2022-10-17T09:10:42;9.43;;;3.43;;
5279;SDS011;2663;53.588;10.010;2022-10-17T09:13:32;4.30;;;2.90;;
5279;SDS011;2663;53.588;10.010;2022-10-17T09:18:34;5.97;;;2.73;;
5279;SDS011;2663;53.588;10.010;2022-10-17T09:21:27;3.90;;;2.77;;
5279;SDS011;2663;53.588;10.010;2022-10-17T09:24:02;8.10;;;3.33;;
5279;SDS011;2663;53.588;10.010;2022-10-17T09:26:41;14.57;;;7.20;;
5279;SDS011;2663;53.588;10.010;2022-10-17T09:29:20;9.13;;;5.10;;
5279;SDS011;2663;53.588;10.010;2022-10-17T09:34:37;6.20;;;4.00;;
5279;SDS011;2663;53.588;10.010;2022-10-17T09:37:04;11.03;;;4.00;;
5279;SDS011;2663;53.588;10.010;2022-10-17T09:39:39;5.30;;;3.70;;
5279;SDS011;2663;53.588;10.010;2022-10-17T09:42:14;17.00;;;4.20;;
5279;SDS011;2663;53.588;10.010;2022-10-17T09:44:48;7.10;;;3.50;;
5279;SDS011;2663;53.588;10.010;2022-10-17T09:49:59;19.73;;;6.03;;
5279;SDS011;2663;53.588;10.010;2022-10-17T09:52:28;9.20;;;5.10;;
5279;SDS011;2663;53.588;10.010;2022-10-17T09:55:14;20.97;;;6.20;;
5279;SDS011;2663;53.588;10.010;2022-10-17T09:57:54;8.33;;;4.03;;
5279;SDS011;2663;53.588;10.010;2022-10-17T10:00:32;15.87;;;7.63;;
5279;SDS011;2663;53.588;10.010;2022-10-17T10:03:15;23.83;;;8.87;;
5279;SDS011;2663;53.588;10.010;2022-10-17T10:06:02;15.73;;;5.40;;
5279;SDS011;2663;53.588;10.010;2022-10-17T10:08:35;6.43;;;3.50;;
5279;SDS011;2663;53.588;10.010;2022-10-17T10:11:14;6.37;;;3.77;;
5279;SDS011;2663;53.588;10.010;2022-10-17T10:13:43;6.30;;;3.20;;
5279;SDS011;2663;53.588;10.010;2022-10-17T10:18:39;7.40;;;3.87;;
5279;SDS011;2663;53.588;10.010;2022-10-17T10:21:13;10.43;;;3.83;;
5279;SDS011;2663;53.588;10.010;2022-10-17T10:23:45;9.20;;;4.33;;
5279;SDS011;2663;53.588;10.010;2022-10-17T10:26:46;8.70;;;3.80;;
5279;SDS011;2663;53.588;10.010;2022-10-17T10:29:20;8.00;;;3.83;;
5279;SDS011;2663;53.588;10.010;2022-10-17T10:34:34;5.43;;;3.40;;
5279;SDS011;2663;53.588;10.010;2022-10-17T10:37:05;6.97;;;3.80;;
5279;SDS011;2663;53.588;10.010;2022-10-17T10:39:47;9.33;;;3.90;;
5279;SDS011;2663;53.588;10.010;2022-10-17T10:45:01;4.37;;;3.00;;
5279;SDS011;2663;53.588;10.010;2022-10-17T10:48:01;7.17;;;3.60;;
5279;SDS011;2663;53.588;10.010;2022-10-17T10:50:38;13.00;;;4.20;;
5279;SDS011;2663;53.588;10.010;2022-10-17T10:53:32;8.20;;;3.50;;
5279;SDS011;2663;53.588;10.010;2022-10-17T11:01:37;18.57;;;4.00;;
5279;SDS011;2663;53.588;10.010;2022-10-17T11:07:28;6.57;;;4.00;;
5279;SDS011;2663;53.588;10.010;2022-10-17T11:15:20;6.47;;;4.50;;
5279;SDS011;2663;53.588;10.010;2022-10-17T11:18:10;20.13;;;10.80;;
5279;SDS011;2663;53.588;10.010;2022-10-17T11:21:15;14.97;;;6.93;;
5279;SDS011;2663;53.588;10.010;2022-10-17T11:26:59;7.73;;;4.20;;
5279;SDS011;2663;53.588;10.010;2022-10-17T11:29:32;5.70;;;3.20;;
5279;SDS011;2663;53.588;10.010;2022-10-17T11:32:07;7.63;;;3.60;;
5279;SDS011;2663;53.588;10.010;2022-10-17T11:34:43;5.70;;;3.53;;
5279;SDS011;2663;53.588;10.010;2022-10-17T11:37:14;17.47;;;3.83;;
5279;SDS011;2663;53.588;10.010;2022-10-17T11:43:02;16.07;;;5.40;;
5279;SDS011;2663;53.588;10.010;2022-10-17T11:45:38;9.37;;;5.20;;
5279;SDS011;2663;53.588;10.010;2022-10-17T11:48:11;9.07;;;5.60;;
5279;SDS011;2663;53.588;10.010;2022-10-17T11:50:50;7.53;;;3.70;;
5279;SDS011;2663;53.588;10.010;2022-10-17T11:53:52;7.77;;;5.60;;
5279;SDS011;2663;53.588;10.010;2022-10-17T11:57:18;16.73;;;10.57;;
5279;SDS011;2663;53.588;10.010;2022-10-17T12:02:13;4.67;;;4.20;;
5279;SDS011;2663;53.588;10.010;2022-10-17T12:05:01;8.20;;;3.50;;
5279;SDS011;2663;53.588;10.010;2022-10-17T12:07:47;11.60;;;7.63;;
5279;SDS011;2663;53.588;10.010;2022-10-17T12:10:58;19.17;;;6.50;;
5279;SDS011;2663;53.588;10.010;2022-10-17T12:19:10;13.10;;;5.83;;
5279;SDS011;2663;53.588;10.010;2022-10-17T12:21:55;11.20;;;6.83;;
5279;SDS011;2663;53.588;10.010;2022-10-17T12:24:32;11.93;;;5.07;;
5279;SDS011;2663;53.588;10.010;2022-10-17T12:29:58;13.30;;;6.23;;
5279;SDS011;2663;53.588;10.010;2022-10-17T12:32:51;9.00;;;5.17;;
5279;SDS011;2663;53.588;10.010;2022-10-17T12:35:32;9.13;;;5.27;;
5279;SDS011;2663;53.588;10.010;2022-10-17T12:51:02;11.20;;;6.80;;
5279;SDS011;2663;53.588;10.010;2022-10-17T12:53:58;11.50;;;6.40;;
5279;SDS011;2663;53.588;10.010;2022-10-17T12:56:44;7.70;;;5.43;;
5279;SDS011;2663;53.588;10.010;2022-10-17T12:59:20;15.33;;;5.93;;
5279;SDS011;2663;53.588;10.010;2022-10-17T13:01:52;11.00;;;5.03;;
5279;SDS011;2663;53.588;10.010;2022-10-17T13:04:22;18.47;;;5.57;;
5279;SDS011;2663;53.588;10.010;2022-10-17T13:06:51;9.03;;;5.63;;
5279;SDS011;2663;53.588;10.010;2022-10-17T13:09:24;10.13;;;5.40;;
5279;SDS011;2663;53.588;10.010;2022-10-17T13:11:54;7.03;;;4.63;;
5279;SDS011;2663;53.588;10.010;2022-10-17T13:14:23;8.33;;;5.30;;
5279;SDS011;2663;53.588;10.010;2022-10-17T13:16:52;9.83;;;6.27;;
5279;SDS011;2663;53.588;10.010;2022-10-17T13:19:22;11.77;;;5.80;;
5279;SDS011;2663;53.588;10.010;2022-10-17T13:24:33;10.23;;;5.67;;
5279;SDS011;2663;53.588;10.010;2022-10-17T13:27:02;9.60;;;6.70;;
5279;SDS011;2663;53.588;10.010;2022-10-17T13:29:30;9.27;;;6.67;;
5279;SDS011;2663;53.588;10.010;2022-10-17T13:31:58;10.07;;;6.50;;
5279;SDS011;2663;53.588;10.010;2022-10-17T13:34:26;8.37;;;7.47;;
5279;SDS011;2663;53.588;10.010;2022-10-17T13:36:55;8.50;;;6.70;;
5279;SDS011;2663;53.588;10.010;2022-10-17T13:39:27;11.10;;;6.30;;
5279;SDS011;2663;53.588;10.010;2022-10-17T13:42:22;11.97;;;6.73;;
5279;SDS011;2663;53.588;10.010;2022-10-17T13:44:52;14.30;;;6.73;;
5279;SDS011;2663;53.588;10.010;2022-10-17T13:47:21;7.87;;;6.73;;
5279;SDS011;2663;53.588;10.010;2022-10-17T13:49:52;12.97;;;7.40;;
5279;SDS011;2663;53.588;10.010;2022-10-17T13:52:22;14.93;;;7.07;;
5279;SDS011;2663;53.588;10.010;2022-10-17T13:54:52;11.30;;;7.67;;
5279;SDS011;2663;53.588;10.010;2022-10-17T13:57:21;16.60;;;7.10;;
5279;SDS011;2663;53.588;10.010;2022-10-17T13:59:49;20.17;;;10.37;;
5279;SDS011;2663;53.588;10.010;2022-10-17T14:02:23;12.73;;;7.80;;
5279;SDS011;2663;53.588;10.010;2022-10-17T14:10:42;14.13;;;8.90;;
5279;SDS011;2663;53.588;10.010;2022-10-17T14:13:16;13.53;;;8.67;;
5279;SDS011;2663;53.588;10.010;2022-10-17T14:15:52;11.30;;;7.97;;
5279;SDS011;2663;53.588;10.010;2022-10-17T14:18:23;13.37;;;7.33;;
5279;SDS011;2663;53.588;10.010;2022-10-17T14:21:01;12.97;;;8.17;;
5279;SDS011;2663;53.588;10.010;2022-10-17T14:23:49;20.63;;;8.70;;
5279;SDS011;2663;53.588;10.010;2022-10-17T14:26:19;14.63;;;10.57;;
5279;SDS011;2663;53.588;10.010;2022-10-17T14:29:04;18.67;;;10.20;;
5279;SDS011;2663;53.588;10.010;2022-10-17T14:31:33;16.53;;;10.30;;
5279;SDS011;2663;53.588;10.010;2022-10-17T14:34:01;16.70;;;9.40;;
5279;SDS011;2663;53.588;10.010;2022-10-17T14:36:36;17.33;;;9.83;;
5279;SDS011;2663;53.588;10.010;2022-10-17T14:39:05;15.00;;;10.60;;
5279;SDS011;2663;53.588;10.010;2022-10-17T14:41:41;17.03;;;10.40;;
5279;SDS011;2663;53.588;10.010;2022-10-17T14:46:46;21.40;;;9.30;;
5279;SDS011;2663;53.588;10.010;2022-10-17T14:49:31;17.07;;;9.20;;
5279;SDS011;2663;53.588;10.010;2022-10-17T14:54:44;12.43;;;8.50;;
5279;SDS011;2663;53.588;10.010;2022-10-17T14:57:18;15.87;;;9.80;;
5279;SDS011;2663;53.588;10.010;2022-10-17T14:59:45;16.73;;;9.10;;
5279;SDS011;2663;53.588;10.010;2022-10-17T15:02:21;12.90;;;8.93;;
5279;SDS011;2663;53.588;10.010;2022-10-17T15:04:52;15.17;;;8.60;;
5279;SDS011;2663;53.588;10.010;2022-10-17T15:07:19;14.77;;;8.70;;
5279;SDS011;2663;53.588;10.010;2022-10-17T15:09:48;10.53;;;8.60;;
5279;SDS011;2663;53.588;10.010;2022-10-17T15:12:17;11.70;;;8.80;;
5279;SDS011;2663;53.588;10.010;2022-10-17T15:14:45;17.17;;;9.17;;
5279;SDS011;2663;53.588;10.010;2022-10-17T15:17:16;10.73;;;9.27;;
5279;SDS011;2663;53.588;10.010;2022-10-17T15:19:48;14.00;;;10.40;;
5279;SDS011;2663;53.588;10.010;2022-10-17T15:22:16;15.00;;;9.73;;
5279;SDS011;2663;53.588;10.010;2022-10-17T15:24:43;14.00;;;8.40;;
5279;SDS011;2663;53.588;10.010;2022-10-17T15:27:21;22.87;;;10.43;;
5279;SDS011;2663;53.588;10.010;2022-10-17T15:29:49;15.67;;;9.63;;
5279;SDS011;2663;53.588;10.010;2022-10-17T15:32:16;17.63;;;10.40;;
5279;SDS011;2663;53.588;10.010;2022-10-17T15:34:43;27.90;;;11.60;;
5279;SDS011;2663;53.588;10.010;2022-10-17T15:37:14;22.80;;;10.43;;
5279;SDS011;2663;53.588;10.010;2022-10-17T15:39:48;14.30;;;11.13;;
5279;SDS011;2663;53.588;10.010;2022-10-17T15:42:20;17.47;;;11.20;;
5279;SDS011;2663;53.588;10.010;2022-10-17T15:44:48;15.40;;;10.70;;
5279;SDS011;2663;53.588;10.010;2022-10-17T15:47:25;16.60;;;11.37;;
5279;SDS011;2663;53.588;10.010;2022-10-17T15:49:56;19.13;;;10.47;;
5279;SDS011;2663;53.588;10.010;2022-10-17T15:52:23;14.27;;;10.87;;
5279;SDS011;2663;53.588;10.010;2022-10-17T15:54:51;15.70;;;10.83;;
5279;SDS011;2663;53.588;10.010;2022-10-17T15:57:22;26.77;;;11.33;;
5279;SDS011;2663;53.588;10.010;2022-10-17T15:59:51;15.70;;;10.23;;
5279;SDS011;2663;53.588;10.010;2022-10-17T16:02:19;15.73;;;9.87;;
5279;SDS011;2663;53.588;10.010;2022-10-17T16:04:48;20.93;;;10.57;;
5279;SDS011;2663;53.588;10.010;2022-10-17T16:07:16;12.20;;;10.20;;
5279;SDS011;2663;53.588;10.010;2022-10-17T16:09:43;12.83;;;10.40;;
5279;SDS011;2663;53.588;10.010;2022-10-17T16:12:12;15.70;;;11.73;;
5279;SDS011;2663;53.588;10.010;2022-10-17T16:14:42;19.63;;;9.97;;
5279;SDS011;2663;53.588;10.010;2022-10-17T16:17:11;13.10;;;9.37;;
5279;SDS011;2663;53.588;10.010;2022-10-17T16:19:39;13.23;;;9.27;;
5279;SDS011;2663;53.588;10.010;2022-10-17T16:22:05;13.83;;;9.80;;
5279;SDS011;2663;53.588;10.010;2022-10-17T16:24:35;14.37;;;9.37;;
5279;SDS011;2663;53.588;10.010;2022-10-17T16:27:02;19.67;;;10.87;;
5279;SDS011;2663;53.588;10.010;2022-10-17T16:29:29;13.63;;;10.40;;
5279;SDS011;2663;53.588;10.010;2022-10-17T16:31:55;15.90;;;11.37;;
5279;SDS011;2663;53.588;10.010;2022-10-17T16:34:22;16.00;;;11.83;;
5279;SDS011;2663;53.588;10.010;2022-10-17T16:36:48;18.87;;;11.30;;
5279;SDS011;2663;53.588;10.010;2022-10-17T16:39:15;12.73;;;10.87;;
5279;SDS011;2663;53.588;10.010;2022-10-17T16:41:42;14.23;;;10.93;;
5279;SDS011;2663;53.588;10.010;2022-10-17T16:44:09;24.70;;;12.70;;
5279;SDS011;2663;53.588;10.010;2022-10-17T16:46:40;25.60;;;13.20;;
5279;SDS011;2663;53.588;10.010;2022-10-17T16:49:08;19.87;;;12.93;;
5279;SDS011;2663;53.588;10.010;2022-10-17T16:51:35;16.73;;;10.80;;
5279;SDS011;2663;53.588;10.010;2022-10-17T16:54:01;16.83;;;11.37;;
5279;SDS011;2663;53.588;10.010;2022-10-17T16:56:29;14.90;;;11.07;;
5279;SDS011;2663;53.588;10.010;2022-10-17T16:58:58;21.90;;;11.73;;
5279;SDS011;2663;53.588;10.010;2022-10-17T17:01:26;21.60;;;11.90;;
5279;SDS011;2663;53.588;10.010;2022-10-17T17:03:56;13.53;;;11.27;;
5279;SDS011;2663;53.588;10.010;2022-10-17T17:06:24;18.50;;;11.43;;
5279;SDS011;2663;53.588;10.010;2022-10-17T17:08:54;20.17;;;11.17;;
5279;SDS011;2663;53.588;10.010;2022-10-17T17:11:23;25.97;;;13.13;;
5279;SDS011;2663;53.588;10.010;2022-10-17T17:13:53;20.73;;;11.37;;
5279;SDS011;2663;53.588;10.010;2022-10-17T17:16:21;20.50;;;12.87;;